Terminal Aerodrome Forecast
Issued by NWS

Home | Current Version | Previous Version | Text Only | Print | Product List | Glossary On
Versions: 1 2 3 4 5 6 7 8 9 10 11 12 13 14 15 16 17
451
FTUS44 KTSA 291318 AAA
TAFRVS
TAF AMD
KRVS 291318Z 2913/3012 12007KT P6SM SCT100
     FM291600 17013G22KT P6SM BKN040
     FM292000 19012KT P6SM BKN050
     FM300200 26005KT P6SM BKN100=

USA.gov is the U.S. government's official web portal to all federal, state and local government web resources and services.